createdAt,value
2023-03-23T15:57:54.993Z,17.78
2023-03-23T16:00:23.621Z,17.76
2023-03-23T16:02:56.980Z,17.79
2023-03-23T16:05:23.474Z,17.93
2023-03-23T16:07:50.394Z,17.93
2023-03-23T16:10:20.035Z,17.97
2023-03-23T16:12:46.793Z,18.08
2023-03-23T16:15:14.134Z,18.02
2023-03-23T16:17:40.920Z,17.95
2023-03-23T16:20:21.834Z,17.77
2023-03-23T16:22:48.958Z,17.68
2023-03-23T16:25:16.005Z,17.71
2023-03-23T16:27:43.329Z,17.56
2023-03-23T16:30:26.764Z,17.13
2023-03-23T16:32:55.417Z,17.19
2023-03-23T16:35:23.621Z,17.00
2023-03-23T16:38:08.142Z,16.98
2023-03-23T16:40:35.083Z,17.02
2023-03-23T16:43:01.489Z,17.11
2023-03-23T16:45:35.797Z,16.89
2023-03-23T16:48:02.400Z,17.02
2023-03-23T16:50:30.022Z,17.09
2023-03-23T16:52:56.839Z,17.20
2023-03-23T16:55:23.265Z,17.25
2023-03-23T16:57:49.681Z,16.98
2023-03-23T17:00:21.990Z,16.93
2023-03-23T17:02:51.900Z,16.88
2023-03-23T17:05:20.053Z,16.84
2023-03-23T17:07:46.909Z,16.69
2023-03-23T17:10:14.053Z,16.79
2023-03-23T17:12:40.904Z,16.65
2023-03-23T17:15:08.909Z,16.54
2023-03-23T17:17:35.674Z,16.45
2023-03-23T17:20:02.428Z,16.30
2023-03-23T17:22:29.009Z,16.22
2023-03-23T17:24:57.201Z,16.08
2023-03-23T17:27:23.623Z,15.91
2023-03-23T17:29:50.030Z,15.81
2023-03-23T17:32:17.166Z,15.81
2023-03-23T17:34:43.596Z,15.86
2023-03-23T17:37:10.193Z,15.79
2023-03-23T17:39:43.288Z,15.79
2023-03-23T17:42:10.390Z,15.75
2023-03-23T17:44:36.874Z,15.74
2023-03-23T17:47:03.427Z,15.43
2023-03-23T17:49:32.947Z,15.42
2023-03-23T17:52:00.250Z,15.46
2023-03-23T17:54:29.027Z,15.64
2023-03-23T17:56:57.812Z,15.63
2023-03-23T17:59:25.201Z,15.68
2023-03-23T18:01:52.676Z,15.75
2023-03-23T18:04:19.264Z,15.98
2023-03-23T18:06:46.367Z,16.22
2023-03-23T18:09:12.949Z,16.29
2023-03-23T18:11:39.415Z,16.47
2023-03-23T18:14:06.069Z,16.44
2023-03-23T18:16:32.551Z,16.24
2023-03-23T18:18:59.005Z,16.16
2023-03-23T18:21:26.974Z,16.01
2023-03-23T18:23:59.188Z,15.94
2023-03-23T18:26:26.568Z,15.81
2023-03-23T18:28:53.222Z,15.64
2023-03-23T18:31:20.820Z,15.86
2023-03-23T18:33:49.403Z,15.71
2023-03-23T18:36:18.547Z,15.61
2023-03-23T18:38:46.097Z,15.53
2023-03-23T18:41:13.960Z,15.67
2023-03-23T18:43:40.996Z,15.73
2023-03-23T18:46:08.009Z,15.64
2023-03-23T18:48:35.569Z,15.64
2023-03-23T18:51:02.573Z,15.61
2023-03-23T18:53:28.999Z,15.53
2023-03-23T18:56:07.759Z,15.48
2023-03-23T18:58:34.305Z,15.46
2023-03-23T19:01:07.019Z,15.57
2023-03-23T19:03:35.187Z,15.88
2023-03-23T19:06:02.197Z,16.09
2023-03-23T19:08:29.417Z,15.85
2023-03-23T19:11:01.030Z,15.79
2023-03-23T19:13:33.926Z,15.72
2023-03-23T19:16:00.760Z,15.41
2023-03-23T19:18:27.224Z,15.16
2023-03-23T19:21:13.454Z,15.07
2023-03-23T19:23:41.341Z,14.95
2023-03-23T19:26:07.844Z,14.84
2023-03-23T19:29:15.495Z,14.88
2023-03-23T19:31:24.710Z,14.98
2023-03-23T19:33:52.956Z,14.96
2023-03-23T19:36:23.504Z,14.97
2023-03-23T19:38:50.755Z,14.95
2023-03-23T19:41:19.075Z,14.98
2023-03-23T19:43:45.985Z,14.95
2023-03-23T19:46:12.827Z,14.94
2023-03-23T19:48:39.986Z,14.87
2023-03-23T19:51:07.601Z,14.70
2023-03-23T19:53:34.415Z,14.77
2023-03-23T19:56:02.931Z,14.67
2023-03-23T19:58:30.549Z,14.76
2023-03-23T20:00:57.140Z,14.81
2023-03-23T20:03:23.699Z,15.17
2023-03-23T20:05:50.467Z,15.26
2023-03-23T20:08:17.634Z,15.31
2023-03-23T20:10:44.090Z,15.69
2023-03-23T20:13:11.571Z,15.91
2023-03-23T20:15:38.235Z,16.01
2023-03-23T20:18:06.015Z,16.13
2023-03-23T20:20:36.146Z,16.16
2023-03-23T20:23:04.258Z,16.08
2023-03-23T20:25:31.402Z,16.28
2023-03-23T20:27:57.875Z,16.18
2023-03-23T20:30:24.422Z,16.16
2023-03-23T20:32:51.941Z,16.26
2023-03-23T20:35:18.753Z,16.46
2023-03-23T20:37:45.223Z,16.38
2023-03-23T20:40:13.997Z,16.30
2023-03-23T20:42:43.757Z,16.24
2023-03-23T20:45:11.971Z,16.20
2023-03-23T20:47:39.374Z,16.40
2023-03-23T20:50:07.430Z,16.66
2023-03-23T20:52:34.040Z,16.65
2023-03-23T20:55:00.890Z,16.30
2023-03-23T20:57:28.671Z,16.18
2023-03-23T20:59:55.966Z,16.01
2023-03-23T21:02:24.952Z,15.84
2023-03-23T21:04:52.721Z,15.60
2023-03-23T21:07:22.902Z,15.42
2023-03-23T21:09:49.599Z,15.36
2023-03-23T21:12:16.093Z,15.32
2023-03-23T21:14:44.796Z,15.30
2023-03-23T21:17:11.302Z,15.29
2023-03-23T21:19:37.931Z,15.21
2023-03-23T21:22:04.372Z,15.23
2023-03-23T21:24:31.906Z,15.30
2023-03-23T21:27:00.682Z,15.11
2023-03-23T21:29:27.368Z,15.11
2023-03-23T21:32:05.310Z,15.19
2023-03-23T21:34:35.959Z,15.16
2023-03-23T21:37:02.370Z,15.17
2023-03-23T21:39:28.902Z,15.13
2023-03-23T21:41:55.388Z,15.06
2023-03-23T21:44:22.104Z,15.09
2023-03-23T21:46:48.577Z,15.09
2023-03-23T21:49:15.111Z,15.12
2023-03-23T21:51:41.893Z,15.14
2023-03-23T21:54:09.985Z,15.21
2023-03-23T21:56:36.939Z,14.97
2023-03-23T21:59:04.603Z,14.93
2023-03-23T22:01:31.344Z,14.88
2023-03-23T22:03:58.200Z,14.84
2023-03-23T22:06:28.560Z,14.99
2023-03-23T22:08:55.386Z,15.02
2023-03-23T22:11:27.494Z,15.05
2023-03-23T22:13:55.535Z,15.13
2023-03-23T22:16:22.699Z,15.06
2023-03-23T22:18:51.182Z,15.12
2023-03-23T22:21:18.990Z,15.22
2023-03-23T22:23:46.091Z,15.16
2023-03-23T22:26:13.885Z,15.19
2023-03-23T22:28:41.100Z,15.19
2023-03-23T22:31:13.225Z,15.22
2023-03-23T22:33:39.948Z,15.27
2023-03-23T22:36:06.853Z,15.26
2023-03-23T22:38:37.747Z,15.17
2023-03-23T22:41:07.086Z,15.33
2023-03-23T22:43:37.561Z,15.27
2023-03-23T22:46:05.102Z,15.42
2023-03-23T22:48:31.842Z,15.36
2023-03-23T22:50:58.556Z,15.42
2023-03-23T22:53:25.353Z,15.56
2023-03-23T22:55:54.635Z,15.51
2023-03-23T22:58:21.314Z,15.58
2023-03-23T23:00:49.857Z,15.54
2023-03-23T23:03:17.128Z,15.62
2023-03-23T23:05:46.466Z,15.56
2023-03-23T23:08:14.660Z,15.76
2023-03-23T23:10:44.829Z,15.77
2023-03-23T23:13:12.722Z,15.63
2023-03-23T23:15:42.572Z,15.69
2023-03-23T23:18:09.140Z,15.72
2023-03-23T23:20:36.340Z,15.79
2023-03-23T23:23:03.612Z,15.66
2023-03-23T23:25:30.472Z,15.50
2023-03-23T23:27:58.345Z,15.57
2023-03-23T23:30:25.622Z,15.63
2023-03-23T23:32:52.628Z,15.60
2023-03-23T23:35:20.746Z,15.68
2023-03-23T23:37:47.759Z,15.66
2023-03-23T23:40:17.745Z,15.51
2023-03-23T23:42:46.081Z,15.52
2023-03-23T23:45:12.574Z,15.38
2023-03-23T23:47:39.248Z,15.21
2023-03-23T23:50:07.558Z,15.42
2023-03-23T23:52:34.787Z,15.32
2023-03-23T23:55:01.756Z,15.47
2023-03-23T23:57:28.214Z,15.46
2023-03-23T23:59:54.636Z,15.43
